createdAt,value
2022-10-12T00:00:15.208Z,7.56
2022-10-12T00:01:15.197Z,7.56
2022-10-12T00:02:15.254Z,7.58
2022-10-12T00:03:15.179Z,7.61
2022-10-12T00:04:15.168Z,7.63
2022-10-12T00:05:15.148Z,7.67
2022-10-12T00:06:15.145Z,7.66
2022-10-12T00:07:15.160Z,7.69
2022-10-12T00:08:15.127Z,7.67
2022-10-12T00:09:15.109Z,7.67
2022-10-12T00:10:15.108Z,7.66
2022-10-12T00:11:15.090Z,7.61
2022-10-12T00:12:15.078Z,7.69
2022-10-12T00:13:15.095Z,7.66
2022-10-12T00:14:15.057Z,7.56
2022-10-12T00:15:15.078Z,7.54
2022-10-12T00:16:15.038Z,7.53
2022-10-12T00:17:15.018Z,7.53
2022-10-12T00:18:15.015Z,7.56
2022-10-12T00:19:15.021Z,7.56
2022-10-12T00:20:15.032Z,7.48
2022-10-12T00:21:14.978Z,7.48
2022-10-12T00:22:15.000Z,7.45
2022-10-12T00:23:14.955Z,7.42
2022-10-12T00:24:14.954Z,7.38
2022-10-12T00:25:14.989Z,7.36
2022-10-12T00:26:14.930Z,7.42
2022-10-12T00:27:14.918Z,7.43
2022-10-12T00:28:14.952Z,7.45
2022-10-12T00:29:14.897Z,7.42
2022-10-12T00:30:14.884Z,7.35
2022-10-12T00:31:14.887Z,7.33
2022-10-12T00:32:14.858Z,7.39
2022-10-12T00:33:14.848Z,7.39
2022-10-12T00:34:14.838Z,7.35
2022-10-12T00:35:14.827Z,7.33
2022-10-12T00:36:14.844Z,7.31
2022-10-12T00:37:14.809Z,7.31
2022-10-12T00:38:14.796Z,7.31
2022-10-12T00:39:14.784Z,7.31
2022-10-12T00:40:14.789Z,7.28
2022-10-12T00:41:14.764Z,7.31
2022-10-12T00:42:14.784Z,7.31
2022-10-12T00:43:14.754Z,7.29
2022-10-12T00:44:14.725Z,7.25
2022-10-12T00:45:14.720Z,7.25
2022-10-12T00:46:14.713Z,7.24
2022-10-12T00:47:14.698Z,7.18
2022-10-12T00:48:14.715Z,7.20
2022-10-12T00:49:14.674Z,7.23
2022-10-12T00:50:14.666Z,7.21
2022-10-12T00:51:14.655Z,7.17
2022-10-12T00:52:14.644Z,7.17
2022-10-12T00:53:14.633Z,7.18
2022-10-12T00:54:14.637Z,7.10
2022-10-12T00:55:14.612Z,7.07
2022-10-12T00:56:14.605Z,6.99
2022-10-12T00:57:14.586Z,6.93
2022-10-12T00:58:14.575Z,6.87
2022-10-12T00:59:14.585Z,6.82
2022-10-12T01:00:14.554Z,6.79
2022-10-12T01:01:14.601Z,6.78
2022-10-12T01:02:14.534Z,6.77
2022-10-12T01:03:14.524Z,6.72
2022-10-12T01:04:14.512Z,6.75
2022-10-12T01:05:14.513Z,6.75
2022-10-12T01:06:14.486Z,6.75
2022-10-12T01:07:14.481Z,6.79
2022-10-12T01:08:14.474Z,6.79
2022-10-12T01:09:14.464Z,6.79
2022-10-12T01:10:14.464Z,6.79
2022-10-12T01:11:14.433Z,6.79
2022-10-12T01:12:14.426Z,6.82
2022-10-12T01:13:14.413Z,6.81
2022-10-12T01:14:14.402Z,6.77
2022-10-12T01:15:14.396Z,6.78
2022-10-12T01:16:14.394Z,6.77
2022-10-12T01:17:14.373Z,6.75
2022-10-12T01:18:14.364Z,6.77
2022-10-12T01:19:14.353Z,6.72
2022-10-12T01:20:14.334Z,6.70
2022-10-12T01:21:14.351Z,6.66
2022-10-12T01:22:14.315Z,6.66
2022-10-12T01:23:14.312Z,6.62
2022-10-12T01:24:14.295Z,6.63
2022-10-12T01:25:14.292Z,6.64
2022-10-12T01:26:14.271Z,6.67
2022-10-12T01:27:14.313Z,6.64
2022-10-12T01:28:14.292Z,6.66
2022-10-12T01:29:14.244Z,6.66
2022-10-12T01:30:14.233Z,6.67
2022-10-12T01:31:14.222Z,6.74
2022-10-12T01:32:14.203Z,6.77
2022-10-12T01:33:14.213Z,6.78
2022-10-12T01:34:14.183Z,6.78
2022-10-12T01:35:14.181Z,6.78
2022-10-12T01:36:14.162Z,6.82
2022-10-12T01:37:14.155Z,6.75
2022-10-12T01:38:14.162Z,6.77
2022-10-12T01:39:14.132Z,6.77
2022-10-12T01:40:14.119Z,6.75
2022-10-12T01:41:14.112Z,6.74
2022-10-12T01:42:14.102Z,6.74
2022-10-12T01:43:14.090Z,6.72
2022-10-12T01:44:14.102Z,6.70
2022-10-12T01:45:14.072Z,6.69
2022-10-12T01:46:14.053Z,6.67
2022-10-12T01:47:14.050Z,6.64
2022-10-12T01:48:14.031Z,6.66
2022-10-12T01:49:14.030Z,6.69
2022-10-12T01:50:14.041Z,6.67
2022-10-12T01:51:14.002Z,6.64
2022-10-12T01:52:13.990Z,6.66
2022-10-12T01:53:13.981Z,6.70
2022-10-12T01:54:13.970Z,6.72
2022-10-12T01:55:13.960Z,6.74
2022-10-12T01:56:13.959Z,6.70
2022-10-12T01:57:13.941Z,6.70
2022-10-12T01:58:13.921Z,6.70
2022-10-12T01:59:13.911Z,6.69
2022-10-12T02:00:13.900Z,6.66
2022-10-12T02:01:13.936Z,6.66
2022-10-12T02:02:13.882Z,6.66
2022-10-12T02:03:13.871Z,6.66
2022-10-12T02:04:13.858Z,6.63
2022-10-12T02:05:13.850Z,6.67
2022-10-12T02:06:13.829Z,6.69
2022-10-12T02:07:13.840Z,6.62
2022-10-12T02:08:13.817Z,6.59
2022-10-12T02:09:13.807Z,6.60
2022-10-12T02:10:13.792Z,6.59
2022-10-12T02:11:13.779Z,6.59
2022-10-12T02:12:13.790Z,6.56
2022-10-12T02:13:13.761Z,6.59
2022-10-12T02:14:13.754Z,6.56
2022-10-12T02:15:13.740Z,6.60
2022-10-12T02:16:13.726Z,6.59
2022-10-12T02:17:13.719Z,6.54
2022-10-12T02:18:13.720Z,6.49
2022-10-12T02:19:13.699Z,6.54
2022-10-12T02:20:13.679Z,6.56
2022-10-12T02:21:13.668Z,6.56
2022-10-12T02:22:13.659Z,6.49
2022-10-12T02:23:13.650Z,6.45
2022-10-12T02:24:13.659Z,6.45
2022-10-12T02:25:13.629Z,6.41
2022-10-12T02:26:13.616Z,6.45
2022-10-12T02:27:13.609Z,6.42
2022-10-12T02:28:13.638Z,6.39
2022-10-12T02:29:13.589Z,6.45
2022-10-12T02:30:13.590Z,6.45
2022-10-12T02:31:13.567Z,6.36
2022-10-12T02:32:13.559Z,6.31
2022-10-12T02:33:13.546Z,6.28
2022-10-12T02:34:13.529Z,6.31
2022-10-12T02:35:13.548Z,6.33
2022-10-12T02:36:13.509Z,6.27
2022-10-12T02:37:13.499Z,6.27
2022-10-12T02:38:13.487Z,6.30
2022-10-12T02:39:13.477Z,6.35
2022-10-12T02:40:13.459Z,6.33
2022-10-12T02:41:13.477Z,6.33
2022-10-12T02:42:13.438Z,6.28
2022-10-12T02:43:13.427Z,6.27
2022-10-12T02:44:13.418Z,6.26
2022-10-12T02:45:13.409Z,6.28
2022-10-12T02:46:13.397Z,6.33
2022-10-12T02:47:13.406Z,6.28
2022-10-12T02:48:13.377Z,6.31
2022-10-12T02:49:13.366Z,6.33
2022-10-12T02:50:13.347Z,6.28
2022-10-12T02:51:13.347Z,6.20
2022-10-12T02:52:13.356Z,6.12
2022-10-12T02:53:13.324Z,6.14
2022-10-12T02:54:13.307Z,6.14
2022-10-12T02:55:13.305Z,6.07
2022-10-12T02:56:13.300Z,6.02
2022-10-12T02:57:13.280Z,6.04
2022-10-12T02:58:13.285Z,6.01
2022-10-12T02:59:13.255Z,5.98
2022-10-12T03:00:13.245Z,6.01
2022-10-12T03:01:13.312Z,6.01
2022-10-12T03:02:13.216Z,6.04
2022-10-12T03:03:13.217Z,6.04
2022-10-12T03:04:13.217Z,6.02
2022-10-12T03:05:13.185Z,6.08
2022-10-12T03:06:13.176Z,6.05
2022-10-12T03:07:13.165Z,6.04
2022-10-12T03:08:13.154Z,6.08
2022-10-12T03:09:13.165Z,6.11
2022-10-12T03:10:13.136Z,6.16
2022-10-12T03:11:13.144Z,6.17
2022-10-12T03:12:13.114Z,6.20
2022-10-12T03:13:13.104Z,6.27
2022-10-12T03:14:13.086Z,6.26
2022-10-12T03:15:13.095Z,6.27
2022-10-12T03:16:13.064Z,6.35
2022-10-12T03:17:13.054Z,6.30
2022-10-12T03:18:13.044Z,6.31
2022-10-12T03:19:13.035Z,6.28
2022-10-12T03:20:13.044Z,6.35
2022-10-12T03:21:13.013Z,6.41
2022-10-12T03:22:12.994Z,6.42
2022-10-12T03:23:12.994Z,6.41
2022-10-12T03:24:12.977Z,6.41
2022-10-12T03:25:12.966Z,6.41
2022-10-12T03:26:12.984Z,6.42
2022-10-12T03:27:12.944Z,6.44
2022-10-12T03:28:12.985Z,6.41
2022-10-12T03:29:12.924Z,6.38
2022-10-12T03:30:12.917Z,6.38
2022-10-12T03:31:12.904Z,6.42
2022-10-12T03:32:12.941Z,6.44
2022-10-12T03:33:12.881Z,6.45
2022-10-12T03:34:12.864Z,6.39
2022-10-12T03:35:12.857Z,6.42
2022-10-12T03:36:12.847Z,6.41
2022-10-12T03:37:12.834Z,6.42
2022-10-12T03:38:12.840Z,6.41
2022-10-12T03:39:12.813Z,6.44
2022-10-12T03:40:12.794Z,6.39
2022-10-12T03:41:12.791Z,6.35
2022-10-12T03:42:12.775Z,6.30
2022-10-12T03:43:12.785Z,6.30
2022-10-12T03:44:12.753Z,6.28
2022-10-12T03:46:06.624Z,6.33
2022-10-12T03:47:06.613Z,6.28
2022-10-12T03:48:06.605Z,6.31
2022-10-12T03:49:06.621Z,6.28
2022-10-12T03:50:06.583Z,6.30
2022-10-12T03:51:06.573Z,6.30
2022-10-12T03:52:06.573Z,6.31
2022-10-12T03:53:06.554Z,6.36
2022-10-12T03:54:06.532Z,6.33
2022-10-12T03:55:06.554Z,6.35
2022-10-12T03:56:06.514Z,6.38
2022-10-12T03:57:06.502Z,6.38
2022-10-12T03:58:06.494Z,6.36
2022-10-12T03:59:06.494Z,6.38
2022-10-12T04:00:06.471Z,6.38
2022-10-12T04:01:06.557Z,6.38
2022-10-12T04:02:06.463Z,6.30
2022-10-12T04:03:06.444Z,6.26
2022-10-12T04:04:06.426Z,6.26
2022-10-12T04:05:06.421Z,6.28
2022-10-12T04:06:06.406Z,6.31
2022-10-12T04:07:06.413Z,6.27
2022-10-12T04:08:06.385Z,6.31
2022-10-12T04:09:06.379Z,6.30
2022-10-12T04:10:06.362Z,6.22
2022-10-12T04:11:06.353Z,6.19
2022-10-12T04:12:06.366Z,6.19
2022-10-12T04:13:06.330Z,6.27
2022-10-12T04:14:06.319Z,6.27
2022-10-12T04:15:06.316Z,6.30
2022-10-12T04:16:06.302Z,6.28
2022-10-12T04:17:06.284Z,6.26
2022-10-12T04:18:06.292Z,6.27
2022-10-12T04:19:06.264Z,6.24
2022-10-12T04:20:06.243Z,6.27
2022-10-12T04:21:06.233Z,6.27
2022-10-12T04:22:06.222Z,6.27
2022-10-12T04:23:06.219Z,6.22
2022-10-12T04:24:06.220Z,6.26
2022-10-12T04:25:06.196Z,6.22
2022-10-12T04:26:06.179Z,6.24
2022-10-12T04:27:06.195Z,6.19
2022-10-12T04:28:06.159Z,6.19
2022-10-12T04:29:06.170Z,6.14
2022-10-12T04:30:06.130Z,6.14
2022-10-12T04:31:06.123Z,6.20
2022-10-12T04:32:11.499Z,6.17
2022-10-12T04:33:07.100Z,6.16
2022-10-12T04:34:06.094Z,6.16
2022-10-12T04:35:06.129Z,6.19
2022-10-12T04:36:06.075Z,6.24
2022-10-12T04:37:06.059Z,6.22
2022-10-12T04:38:06.049Z,6.27
2022-10-12T04:39:06.038Z,6.27
2022-10-12T04:40:06.026Z,6.27
2022-10-12T04:41:06.037Z,6.24
2022-10-12T04:42:05.998Z,6.30
2022-10-12T04:43:06.008Z,6.30
2022-10-12T04:44:05.978Z,6.28
2022-10-12T04:45:05.975Z,6.31
2022-10-12T04:46:05.950Z,6.31
2022-10-12T04:47:05.960Z,6.22
2022-10-12T04:48:05.929Z,6.20
2022-10-12T04:49:05.920Z,6.22
2022-10-12T04:50:05.909Z,6.24
2022-10-12T04:51:05.899Z,6.20
2022-10-12T04:52:05.907Z,6.28
2022-10-12T04:53:05.877Z,6.19
2022-10-12T04:54:05.861Z,6.20
2022-10-12T04:55:05.851Z,6.26
2022-10-12T04:56:05.840Z,6.20
2022-10-12T04:57:05.837Z,6.20
2022-10-12T04:58:05.828Z,6.20
2022-10-12T04:59:05.809Z,6.17
2022-10-12T05:00:05.799Z,6.11
2022-10-12T05:01:05.854Z,6.07
2022-10-12T05:02:05.769Z,6.09
2022-10-12T05:03:05.787Z,6.17
2022-10-12T05:04:05.749Z,6.20
2022-10-12T05:05:05.747Z,6.14
2022-10-12T05:06:05.728Z,6.14
2022-10-12T05:07:05.726Z,6.12
2022-10-12T05:08:05.697Z,6.19
2022-10-12T05:09:05.717Z,6.20
2022-10-12T05:10:05.686Z,6.19
2022-10-12T05:11:05.667Z,6.20
2022-10-12T05:12:05.658Z,6.19
2022-10-12T05:13:05.655Z,6.12
2022-10-12T05:14:05.648Z,6.17
2022-10-12T05:15:05.651Z,6.16
2022-10-12T05:16:05.618Z,6.16
2022-10-12T05:17:05.620Z,6.14
2022-10-12T05:18:05.588Z,6.16
2022-10-12T05:19:05.577Z,6.16
2022-10-12T05:20:05.587Z,6.19
2022-10-12T05:21:05.559Z,6.12
2022-10-12T05:22:05.544Z,6.09
2022-10-12T05:23:05.537Z,6.11
2022-10-12T05:24:05.517Z,6.05
2022-10-12T05:25:05.515Z,6.11
2022-10-12T05:26:05.517Z,6.19
2022-10-12T05:27:05.488Z,6.20
2022-10-12T05:28:05.476Z,6.16
2022-10-12T05:29:05.465Z,6.16
2022-10-12T05:30:05.454Z,6.14
2022-10-12T05:31:05.447Z,6.14
2022-10-12T05:32:05.447Z,6.12
2022-10-12T05:33:05.433Z,6.11
2022-10-12T05:34:05.408Z,6.11
2022-10-12T05:35:05.403Z,6.08
2022-10-12T05:36:05.386Z,6.07
2022-10-12T05:37:05.427Z,6.09
2022-10-12T05:38:05.365Z,6.11
2022-10-12T05:39:05.361Z,6.14
2022-10-12T05:40:05.336Z,6.16
2022-10-12T05:41:05.333Z,6.17
2022-10-12T05:42:05.316Z,6.12
2022-10-12T05:43:05.327Z,6.12
2022-10-12T05:44:05.295Z,6.17
2022-10-12T05:45:05.294Z,6.16
2022-10-12T05:46:05.275Z,6.12
2022-10-12T05:47:05.265Z,6.09
2022-10-12T05:48:05.256Z,6.07
2022-10-12T05:49:05.263Z,6.08
2022-10-12T05:50:05.237Z,6.11
2022-10-12T05:51:05.222Z,6.12
2022-10-12T05:52:05.204Z,6.12
2022-10-12T05:53:05.195Z,6.12
2022-10-12T05:54:05.191Z,6.20
2022-10-12T05:55:05.196Z,6.17
2022-10-12T05:56:05.163Z,6.14
2022-10-12T05:57:05.153Z,6.19
2022-10-12T05:58:05.153Z,6.26
2022-10-12T05:59:05.123Z,6.28
2022-10-12T06:00:05.124Z,6.20
2022-10-12T06:01:05.132Z,6.20
2022-10-12T06:02:05.150Z,6.19
2022-10-12T06:03:05.091Z,6.16
2022-10-12T06:04:05.073Z,6.12
2022-10-12T06:05:05.070Z,6.19
2022-10-12T06:06:05.053Z,6.16
2022-10-12T06:07:05.064Z,6.04
2022-10-12T06:08:05.034Z,6.08
2022-10-12T06:09:05.027Z,6.02
2022-10-12T06:10:05.015Z,5.99
2022-10-12T06:11:04.995Z,6.02
2022-10-12T06:12:04.998Z,5.98
2022-10-12T06:13:05.003Z,5.99
2022-10-12T06:14:04.967Z,6.04
2022-10-12T06:15:04.972Z,6.01
2022-10-12T06:16:04.942Z,6.02
2022-10-12T06:17:04.930Z,6.07
2022-10-12T06:18:04.942Z,6.08
2022-10-12T06:19:04.934Z,6.14
2022-10-12T06:20:04.901Z,6.24
2022-10-12T06:21:21.370Z,6.38
2022-10-12T06:22:05.882Z,6.45
2022-10-12T06:23:04.891Z,6.48
2022-10-12T06:24:04.897Z,6.52
2022-10-12T06:25:04.842Z,6.52
2022-10-12T06:26:04.833Z,6.60
2022-10-12T06:27:04.835Z,6.79
2022-10-12T06:28:04.811Z,7.03
2022-10-12T06:29:04.803Z,7.14
2022-10-12T06:30:04.813Z,7.24
2022-10-12T06:31:04.773Z,7.36
2022-10-12T06:32:04.763Z,7.51
2022-10-12T06:33:04.753Z,7.69
2022-10-12T06:34:04.741Z,7.83
2022-10-12T06:35:04.731Z,7.97
2022-10-12T06:36:04.741Z,8.19
2022-10-12T06:37:04.702Z,8.37
2022-10-12T06:38:04.700Z,8.51
2022-10-12T06:39:04.701Z,8.66
2022-10-12T06:40:04.671Z,8.74
2022-10-12T06:41:04.712Z,8.79
2022-10-12T06:42:04.652Z,8.92
2022-10-12T06:43:04.638Z,9.26
2022-10-12T06:44:04.630Z,9.69
2022-10-12T06:45:04.619Z,10.31
2022-10-12T06:46:04.613Z,10.86
2022-10-12T06:47:04.621Z,11.02
2022-10-12T06:48:04.581Z,11.04
2022-10-12T06:49:04.570Z,11.02
2022-10-12T06:50:04.560Z,11.19
2022-10-12T06:51:04.548Z,11.15
2022-10-12T06:52:04.541Z,11.40
2022-10-12T06:53:04.550Z,11.66
2022-10-12T06:54:04.521Z,12.07
2022-10-12T06:55:04.500Z,12.49
2022-10-12T06:56:04.491Z,12.91
2022-10-12T06:57:04.479Z,12.93
2022-10-12T06:58:04.472Z,12.97
2022-10-12T06:59:04.542Z,12.98
2022-10-12T07:00:04.449Z,12.80
2022-10-12T07:01:04.431Z,12.79
2022-10-12T07:02:04.474Z,12.32
2022-10-12T07:03:04.411Z,11.99
2022-10-12T07:04:04.430Z,11.62
2022-10-12T07:05:04.389Z,11.45
2022-10-12T07:06:04.380Z,11.50
2022-10-12T07:07:04.370Z,11.59
2022-10-12T07:08:04.350Z,11.91
2022-10-12T07:09:04.341Z,12.02
2022-10-12T07:10:04.353Z,11.77
2022-10-12T07:11:04.320Z,11.29
2022-10-12T07:12:04.311Z,11.25
2022-10-12T07:13:04.299Z,11.14
2022-10-12T07:14:04.301Z,11.35
2022-10-12T07:15:04.424Z,11.62
2022-10-12T07:16:04.261Z,12.10
2022-10-12T07:17:04.263Z,12.39
2022-10-12T07:18:04.242Z,12.62
2022-10-12T07:19:04.230Z,12.97
2022-10-12T07:20:04.241Z,12.62
2022-10-12T07:21:04.278Z,11.95
2022-10-12T07:22:04.198Z,11.97
2022-10-12T07:23:04.192Z,12.04
2022-10-12T07:24:04.212Z,11.86
2022-10-12T07:25:04.161Z,11.59
2022-10-12T07:26:04.152Z,11.12
2022-10-12T07:27:04.154Z,10.92
2022-10-12T07:28:04.132Z,10.67
2022-10-12T07:29:04.112Z,10.33
2022-10-12T07:30:04.103Z,10.19
2022-10-12T07:31:04.090Z,10.35
2022-10-12T07:32:04.108Z,10.64
2022-10-12T07:33:04.123Z,10.93
2022-10-12T07:34:04.072Z,11.15
2022-10-12T07:35:04.044Z,11.25
2022-10-12T07:36:15.048Z,11.02
2022-10-12T07:37:05.042Z,10.64
2022-10-12T07:38:04.012Z,10.20
2022-10-12T07:39:04.022Z,9.98
2022-10-12T07:40:04.035Z,10.20
2022-10-12T07:41:03.973Z,10.44
2022-10-12T07:42:03.963Z,10.75
2022-10-12T07:43:15.600Z,11.18
2022-10-12T07:44:05.020Z,11.52
2022-10-12T07:45:03.930Z,11.70
2022-10-12T07:46:03.922Z,11.91
2022-10-12T07:47:03.903Z,12.15
2022-10-12T07:48:03.905Z,12.49
2022-10-12T07:49:03.883Z,12.53
2022-10-12T07:50:03.893Z,12.18
2022-10-12T07:51:03.884Z,12.21
2022-10-12T07:52:04.043Z,12.67
2022-10-12T07:53:03.839Z,12.82
2022-10-12T07:54:03.851Z,13.23
2022-10-12T07:55:03.812Z,13.54
2022-10-12T07:56:03.823Z,14.08
2022-10-12T07:57:03.792Z,14.55
2022-10-12T07:58:03.792Z,15.00
2022-10-12T07:59:03.771Z,15.24
2022-10-12T08:00:03.763Z,15.36
2022-10-12T08:01:03.764Z,15.11
2022-10-12T08:02:03.828Z,14.88
2022-10-12T08:03:03.723Z,14.84
2022-10-12T08:04:03.725Z,14.43
2022-10-12T08:05:03.700Z,14.32
2022-10-12T08:06:03.691Z,14.04
2022-10-12T08:07:03.702Z,14.17
2022-10-12T08:08:03.672Z,14.43
2022-10-12T08:09:03.653Z,14.48
2022-10-12T08:10:03.643Z,14.35
2022-10-12T08:11:03.624Z,14.23
2022-10-12T08:12:03.624Z,14.07
2022-10-12T08:13:03.624Z,14.22
2022-10-12T08:14:03.602Z,14.54
2022-10-12T08:15:03.583Z,14.91
2022-10-12T08:16:03.575Z,15.28
2022-10-12T08:17:03.555Z,15.33
2022-10-12T08:18:03.557Z,15.52
2022-10-12T08:19:03.563Z,15.72
2022-10-12T08:20:03.532Z,15.52
2022-10-12T08:21:03.527Z,15.28
2022-10-12T08:22:03.513Z,15.04
2022-10-12T08:23:03.496Z,15.09
2022-10-12T08:24:03.485Z,15.07
2022-10-12T08:25:03.496Z,15.00
2022-10-12T08:26:03.465Z,14.99
2022-10-12T08:27:03.455Z,15.00
2022-10-12T08:28:03.444Z,15.10
2022-10-12T08:29:03.426Z,15.33
2022-10-12T08:30:03.417Z,15.72
2022-10-12T08:31:03.426Z,16.09
2022-10-12T08:32:03.397Z,16.35
2022-10-12T08:33:05.797Z,16.69
2022-10-12T08:34:04.380Z,16.93
2022-10-12T08:35:03.357Z,17.15
2022-10-12T08:36:03.349Z,17.04
2022-10-12T08:37:03.348Z,16.90
2022-10-12T08:38:03.327Z,17.12
2022-10-12T08:39:03.307Z,17.23
2022-10-12T08:40:03.723Z,17.33
2022-10-12T08:41:03.339Z,17.45
2022-10-12T08:42:03.297Z,17.36
2022-10-12T08:43:03.266Z,17.41
2022-10-12T08:44:03.259Z,17.63
2022-10-12T08:45:03.240Z,17.23
2022-10-12T08:46:03.228Z,17.12
2022-10-12T08:47:03.220Z,17.24
2022-10-12T08:48:03.258Z,17.27
2022-10-12T08:49:03.198Z,17.09
2022-10-12T08:50:03.188Z,17.20
2022-10-12T08:51:03.173Z,17.29
2022-10-12T08:52:03.168Z,17.39
2022-10-12T08:53:03.149Z,17.24
2022-10-12T08:54:03.159Z,17.09
2022-10-12T08:55:03.140Z,17.29
2022-10-12T08:56:03.133Z,17.49
2022-10-12T08:57:03.101Z,17.67
2022-10-12T08:58:03.099Z,17.60
2022-10-12T08:59:03.100Z,17.06
2022-10-12T09:00:03.080Z,17.11
2022-10-12T09:01:03.059Z,17.12
2022-10-12T09:02:03.186Z,17.23
2022-10-12T09:03:03.037Z,17.41
2022-10-12T09:04:03.029Z,17.74
2022-10-12T09:05:03.032Z,17.94
2022-10-12T09:06:03.009Z,17.46
2022-10-12T09:07:02.992Z,17.05
2022-10-12T09:08:03.006Z,16.74
2022-10-12T09:09:02.971Z,16.57
2022-10-12T09:10:02.974Z,16.28
2022-10-12T09:11:02.971Z,15.92
2022-10-12T09:12:02.941Z,15.40
2022-10-12T09:13:02.922Z,14.86
2022-10-12T09:14:02.913Z,14.69
2022-10-12T09:15:02.903Z,14.55
2022-10-12T09:16:02.912Z,14.62
2022-10-12T09:17:02.872Z,14.58
2022-10-12T09:18:02.895Z,14.59
2022-10-12T09:19:02.853Z,14.54
2022-10-12T09:20:02.853Z,14.25
2022-10-12T09:21:02.833Z,14.07
2022-10-12T09:22:02.851Z,14.11
2022-10-12T09:23:02.803Z,14.10
2022-10-12T09:24:02.803Z,14.14
2022-10-12T09:25:02.789Z,14.29
2022-10-12T09:26:02.774Z,14.37
2022-10-12T09:27:02.763Z,14.63
2022-10-12T09:28:02.773Z,14.92
2022-10-12T09:29:02.802Z,15.15
2022-10-12T09:30:02.731Z,15.21
2022-10-12T09:31:02.713Z,15.24
2022-10-12T09:32:02.705Z,15.35
2022-10-12T09:33:02.713Z,15.43
2022-10-12T09:34:02.683Z,15.57
2022-10-12T09:35:02.672Z,15.68
2022-10-12T09:36:02.684Z,15.58
2022-10-12T09:37:02.644Z,15.35
2022-10-12T09:38:02.633Z,15.14
2022-10-12T09:39:02.652Z,15.03
2022-10-12T09:40:02.615Z,15.10
2022-10-12T09:41:02.603Z,15.19
2022-10-12T09:42:02.594Z,15.25
2022-10-12T09:43:02.575Z,15.33
2022-10-12T09:44:02.564Z,15.35
2022-10-12T09:45:02.583Z,15.51
2022-10-12T09:46:09.598Z,15.59
2022-10-12T09:47:02.540Z,15.62
2022-10-12T09:48:02.529Z,15.72
2022-10-12T09:49:02.509Z,15.68
2022-10-12T09:50:02.499Z,15.65
2022-10-12T09:51:02.506Z,15.67
2022-10-12T09:52:02.479Z,15.68
2022-10-12T09:53:02.460Z,15.65
2022-10-12T09:54:02.459Z,15.80
2022-10-12T09:55:04.977Z,15.70
2022-10-12T09:56:02.451Z,15.70
2022-10-12T09:57:02.413Z,15.64
2022-10-12T09:58:02.409Z,15.73
2022-10-12T09:59:02.400Z,15.72
2022-10-12T10:00:02.399Z,15.64
2022-10-12T10:01:02.371Z,15.58
2022-10-12T10:02:02.402Z,15.61
2022-10-12T10:03:02.352Z,15.62
2022-10-12T10:04:02.331Z,15.64
2022-10-12T10:05:02.331Z,15.57
2022-10-12T10:06:02.360Z,15.62
2022-10-12T10:07:02.333Z,15.64
2022-10-12T10:08:02.296Z,15.68
2022-10-12T10:09:02.284Z,15.76
2022-10-12T10:10:02.265Z,15.94
2022-10-12T10:11:02.263Z,16.15
2022-10-12T10:12:02.243Z,16.32
2022-10-12T10:13:02.279Z,16.39
2022-10-12T10:14:02.228Z,16.41
2022-10-12T10:15:02.214Z,16.36
2022-10-12T10:16:02.208Z,16.41
2022-10-12T10:17:02.191Z,16.42
2022-10-12T10:18:02.203Z,16.41
2022-10-12T10:19:02.173Z,16.42
2022-10-12T10:20:02.151Z,16.46
2022-10-12T10:21:02.141Z,16.61
2022-10-12T10:22:02.135Z,16.76
2022-10-12T10:23:02.122Z,16.74
2022-10-12T10:24:02.132Z,16.78
2022-10-12T10:25:02.182Z,16.91
2022-10-12T10:26:02.082Z,16.99
2022-10-12T10:27:02.080Z,16.96
2022-10-12T10:28:02.062Z,17.02
2022-10-12T10:29:02.215Z,17.05
2022-10-12T10:30:17.530Z,17.14
2022-10-12T10:31:03.050Z,17.14
2022-10-12T10:32:02.032Z,17.11
2022-10-12T10:33:02.004Z,17.02
2022-10-12T10:34:01.994Z,16.96
2022-10-12T10:35:02.003Z,16.91
2022-10-12T10:36:01.975Z,16.99
2022-10-12T10:37:01.962Z,17.02
2022-10-12T10:38:01.945Z,16.93
2022-10-12T10:39:01.934Z,16.90
2022-10-12T10:40:01.949Z,16.90
2022-10-12T10:41:01.913Z,16.97
2022-10-12T10:42:01.894Z,17.09
2022-10-12T10:43:01.896Z,17.20
2022-10-12T10:44:01.882Z,17.22
2022-10-12T10:45:01.868Z,17.27
2022-10-12T10:46:01.874Z,17.39
2022-10-12T10:47:01.854Z,17.51
2022-10-12T10:48:01.835Z,17.44
2022-10-12T10:49:01.826Z,17.16
2022-10-12T10:50:01.807Z,16.96
2022-10-12T10:51:01.803Z,16.97
2022-10-12T10:52:01.805Z,16.96
2022-10-12T10:53:01.777Z,17.11
2022-10-12T10:54:01.756Z,17.27
2022-10-12T10:55:01.755Z,17.46
2022-10-12T10:56:01.737Z,17.70
2022-10-12T10:57:01.732Z,17.85
2022-10-12T10:58:01.737Z,17.98
2022-10-12T10:59:04.314Z,17.98
2022-10-12T11:00:25.983Z,17.94
2022-10-12T11:01:02.686Z,17.97
2022-10-12T11:02:01.714Z,18.08
2022-10-12T11:03:01.665Z,18.19
2022-10-12T11:04:01.664Z,18.10
2022-10-12T11:05:01.636Z,18.11
2022-10-12T11:06:01.618Z,18.04
2022-10-12T11:07:01.616Z,18.05
2022-10-12T11:08:01.595Z,18.07
2022-10-12T11:09:01.608Z,18.18
2022-10-12T11:10:01.577Z,18.33
2022-10-12T11:11:01.574Z,18.15
2022-10-12T11:12:01.682Z,18.15
2022-10-12T11:13:01.544Z,18.23
2022-10-12T11:14:01.527Z,18.22
2022-10-12T11:15:01.537Z,18.29
2022-10-12T11:16:01.507Z,18.33
2022-10-12T11:17:01.496Z,18.45
2022-10-12T11:18:01.492Z,18.45
2022-10-12T11:19:01.475Z,18.59
2022-10-12T11:20:01.477Z,18.62
2022-10-12T11:21:01.447Z,18.68
2022-10-12T11:22:01.436Z,18.68
2022-10-12T11:23:01.451Z,18.73
2022-10-12T11:24:01.411Z,18.73
2022-10-12T11:25:01.411Z,18.59
2022-10-12T11:26:01.439Z,18.70
2022-10-12T11:27:01.388Z,18.65
2022-10-12T11:28:01.368Z,18.70
2022-10-12T11:29:01.358Z,18.83
2022-10-12T11:30:09.176Z,19.09
2022-10-12T11:31:02.357Z,18.99
2022-10-12T11:32:01.331Z,18.90
2022-10-12T11:33:01.318Z,18.88
2022-10-12T11:34:01.299Z,18.98
2022-10-12T11:35:01.299Z,18.75
2022-10-12T11:36:01.282Z,18.80
2022-10-12T11:37:19.080Z,18.80
2022-10-12T11:38:02.259Z,18.99
2022-10-12T11:39:06.688Z,19.24
2022-10-12T11:40:02.240Z,19.33
2022-10-12T11:41:18.960Z,19.27
2022-10-12T11:42:20.849Z,19.44
2022-10-12T11:43:02.200Z,19.41
2022-10-12T11:44:01.189Z,19.22
2022-10-12T11:45:01.182Z,19.19
2022-10-12T11:46:01.341Z,19.21
2022-10-12T11:47:01.149Z,19.09
2022-10-12T11:48:01.160Z,18.99
2022-10-12T11:49:01.130Z,18.95
2022-10-12T11:50:01.122Z,18.89
2022-10-12T11:51:04.030Z,18.80
2022-10-12T11:52:01.094Z,18.80
2022-10-12T11:53:01.104Z,19.00
2022-10-12T11:54:01.070Z,19.15
2022-10-12T11:55:01.061Z,19.30
2022-10-12T11:56:01.113Z,19.33
2022-10-12T11:57:01.030Z,19.11
2022-10-12T11:58:01.025Z,18.96
2022-10-12T11:59:01.983Z,18.95
2022-10-12T12:00:01.030Z,19.07
2022-10-12T12:01:01.031Z,19.16
2022-10-12T12:02:00.971Z,19.37
2022-10-12T12:03:01.000Z,19.48
2022-10-12T12:04:12.341Z,19.63
2022-10-12T12:05:01.961Z,19.54
2022-10-12T12:06:00.930Z,19.47
2022-10-12T12:07:00.923Z,19.55
2022-10-12T12:08:00.908Z,19.67
2022-10-12T12:09:00.903Z,19.73
2022-10-12T12:10:00.903Z,19.62
2022-10-12T12:11:00.903Z,19.56
2022-10-12T12:12:00.862Z,19.64
2022-10-12T12:13:00.855Z,19.52
2022-10-12T12:14:00.854Z,19.64
2022-10-12T12:15:00.825Z,19.74
2022-10-12T12:16:00.833Z,19.73
2022-10-12T12:17:00.794Z,19.81
2022-10-12T12:18:00.790Z,19.51
2022-10-12T12:19:00.774Z,19.58
2022-10-12T12:20:00.757Z,19.52
2022-10-12T12:21:00.868Z,19.45
2022-10-12T12:22:00.754Z,19.64
2022-10-12T12:23:00.724Z,19.84
2022-10-12T12:24:00.716Z,19.74
2022-10-12T12:25:00.735Z,19.55
2022-10-12T12:26:00.690Z,19.48
2022-10-12T12:27:00.754Z,19.39
2022-10-12T12:28:00.676Z,19.29
2022-10-12T12:29:00.678Z,19.15
2022-10-12T12:30:00.635Z,19.16
2022-10-12T12:31:00.697Z,19.21
2022-10-12T12:32:00.618Z,19.33
2022-10-12T12:33:00.644Z,19.29
2022-10-12T12:34:00.590Z,19.27
2022-10-12T12:35:01.012Z,19.24
2022-10-12T12:36:00.607Z,19.16
2022-10-12T12:37:00.572Z,19.31
2022-10-12T12:38:00.562Z,19.39
2022-10-12T12:39:00.558Z,19.44
2022-10-12T12:40:00.520Z,19.69
2022-10-12T12:41:00.595Z,19.99
2022-10-12T12:42:02.336Z,20.21
2022-10-12T12:43:00.676Z,20.21
2022-10-12T12:44:00.509Z,20.29
2022-10-12T12:45:00.466Z,20.39
2022-10-12T12:46:00.448Z,20.36
2022-10-12T12:47:00.447Z,20.34
2022-10-12T12:48:00.483Z,20.39
2022-10-12T12:49:00.418Z,20.32
2022-10-12T12:50:00.646Z,20.39
2022-10-12T12:51:00.476Z,20.44
2022-10-12T12:52:00.387Z,20.39
2022-10-12T12:53:00.367Z,20.43
2022-10-12T12:54:00.359Z,20.18
2022-10-12T12:55:00.353Z,20.06
2022-10-12T12:56:00.379Z,19.95
2022-10-12T12:57:00.331Z,19.85
2022-10-12T12:58:00.318Z,19.92
2022-10-12T12:59:00.311Z,20.03
2022-10-12T13:00:00.290Z,19.95
2022-10-12T13:01:00.379Z,20.03
2022-10-12T13:02:00.341Z,20.00
2022-10-12T13:03:00.253Z,19.99
2022-10-12T13:04:00.248Z,20.00
2022-10-12T13:05:00.229Z,20.14
2022-10-12T13:06:00.222Z,20.21